Time;durP1;ratioP1;P1;durP2;ratioP2;P2;SDS_P1;SDS_P2;PMS_P1;PMS_P2;Temp;Humidity;BMP_temperature;BMP_pressure;BME280_temperature;BME280_humidity;BME280_pressure;Samples;Min_cycle;Max_cycle;Signal;HPM_P1;HPM_P2
2022/08/20 00:00:52;;;;;;;2.95;2.15;;;;;16.90;94179.00;;;;7396367;19;20148;-80
2022/08/20 00:03:40;;;;;;;3.03;2.10;;;;;16.80;94178.00;;;;7396352;19;20218;-79
2022/08/20 00:06:22;;;;;;;1.95;1.70;;;;;16.70;94177.00;;;;7395494;19;20149;-78
2022/08/20 00:08:52;;;;;;;4.35;1.70;;;;;16.70;94173.00;;;;7397598;19;20166;-79
2022/08/20 00:11:26;;;;;;;2.35;1.95;;;;;16.60;94177.00;;;;7397917;19;20135;-80
2022/08/20 00:14:01;;;;;;;4.20;2.00;;;;;16.60;94180.00;;;;7397844;19;20140;-78
2022/08/20 00:16:36;;;;;;;3.00;1.98;;;;;16.60;94178.00;;;;7395379;19;20152;-80
2022/08/20 00:19:08;;;;;;;1.85;1.73;;;;;16.50;94190.00;;;;7397583;19;20262;-78
2022/08/20 00:21:42;;;;;;;2.13;1.92;;;;;16.50;94188.00;;;;7396205;19;20153;-79
2022/08/20 00:24:14;;;;;;;1.80;1.60;;;;;16.40;94184.00;;;;7393964;19;20166;-78
2022/08/20 00:26:45;;;;;;;1.95;1.75;;;;;16.60;94183.00;;;;7394986;19;20505;-80
2022/08/20 00:29:20;;;;;;;5.10;2.20;;;;;16.60;94191.00;;;;7396349;19;20144;-78
2022/08/20 00:31:49;;;;;;;2.00;1.90;;;;;16.70;94190.00;;;;7398073;19;20177;-79
2022/08/20 00:34:17;;;;;;;3.75;1.90;;;;;16.80;94191.00;;;;7395511;19;20140;-78
2022/08/20 00:36:57;;;;;;;3.33;2.10;;;;;16.70;94181.00;;;;7395156;19;20604;-79
2022/08/20 00:39:25;;;;;;;2.42;2.03;;;;;16.80;94182.00;;;;7397669;19;20128;-78
2022/08/20 00:42:10;;;;;;;3.08;2.15;;;;;16.80;94183.00;;;;7398280;19;20149;-79
2022/08/20 00:44:51;;;;;;;2.58;2.00;;;;;16.70;94178.00;;;;7395624;19;20145;-78
2022/08/20 00:47:26;;;;;;;3.75;2.35;;;;;16.70;94176.00;;;;7396498;19;20185;-79
2022/08/20 00:49:53;;;;;;;2.80;2.25;;;;;16.80;94178.00;;;;7392052;19;20152;-78
2022/08/20 00:52:21;;;;;;;4.35;2.10;;;;;16.90;94177.00;;;;7394618;19;20145;-79
2022/08/20 00:54:59;;;;;;;2.47;2.28;;;;;16.90;94178.00;;;;7393419;19;20191;-80
2022/08/20 00:57:33;;;;;;;3.00;2.17;;;;;16.80;94190.00;;;;7396423;19;20155;-79
2022/08/20 01:00:31;;;;;;;2.28;2.08;;;;;16.90;94184.00;;;;7393070;19;20156;-74
2022/08/20 01:02:59;;;;;;;2.55;2.35;;;;;16.90;94184.00;;;;7394006;19;20184;-74
2022/08/20 01:05:37;;;;;;;6.55;2.40;;;;;16.90;94190.00;;;;7395146;19;20156;-75
2022/08/20 01:08:04;;;;;;;2.30;2.10;;;;;16.80;94197.00;;;;7393068;19;20145;-75
2022/08/20 01:10:37;;;;;;;2.85;1.77;;;;;16.80;94199.00;;;;7393493;19;20177;-75
2022/08/20 01:13:14;;;;;;;2.40;2.13;;;;;16.90;94197.00;;;;7394747;19;20137;-76
2022/08/20 01:15:45;;;;;;;2.38;1.98;;;;;16.90;94199.00;;;;7394182;19;20156;-76
2022/08/20 01:18:23;;;;;;;6.18;2.45;;;;;16.80;94197.00;;;;7393447;19;20152;-77
2022/08/20 01:21:01;;;;;;;3.42;2.60;;;;;16.80;94197.00;;;;7394415;19;20156;-77
2022/08/20 01:23:47;;;;;;;2.60;2.40;;;;;16.80;94195.00;;;;7396990;19;20188;-75
2022/08/20 01:26:25;;;;;;;2.78;2.20;;;;;16.80;94195.00;;;;7393539;19;20619;-75
2022/08/20 01:29:10;;;;;;;3.22;2.60;;;;;16.80;94194.00;;;;7394364;19;20141;-75
2022/08/20 01:31:40;;;;;;;2.60;2.40;;;;;16.80;94199.00;;;;7394958;19;20643;-75
2022/08/20 01:34:18;;;;;;;3.25;2.90;;;;;16.90;94204.00;;;;7392917;19;20145;-76
2022/08/20 01:37:00;;;;;;;2.83;2.58;;;;;16.80;94209.00;;;;7392688;19;20157;-75
2022/08/20 01:39:36;;;;;;;3.60;2.58;;;;;16.80;94213.00;;;;7394561;19;20152;-74
2022/08/20 01:42:08;;;;;;;2.83;2.63;;;;;17.00;94211.00;;;;7391754;19;20213;-76
2022/08/20 01:44:45;;;;;;;4.88;2.55;;;;;16.90;94203.00;;;;7393178;19;20136;-74
2022/08/20 01:47:13;;;;;;;5.05;2.70;;;;;16.80;94210.00;;;;7395211;19;20600;-75
2022/08/20 01:49:48;;;;;;;2.65;2.45;;;;;16.80;94212.00;;;;7396086;19;20477;-76
2022/08/20 01:52:56;;;;;;;3.30;3.00;;;;;16.70;94209.00;;;;7391993;19;20980;-76
2022/08/20 01:55:25;;;;;;;4.82;3.00;;;;;16.90;94213.00;;;;7390085;19;20491;-75
2022/08/20 01:58:00;;;;;;;3.70;3.22;;;;;16.80;94216.00;;;;7391676;19;20159;-76
2022/08/20 02:00:27;;;;;;;3.75;3.45;;;;;16.70;94215.00;;;;7393647;19;20244;-75
2022/08/20 02:02:56;;;;;;;4.65;3.08;;;;;16.50;94213.00;;;;7392489;19;20176;-76
2022/08/20 02:05:32;;;;;;;4.10;3.80;;;;;16.60;94213.00;;;;7394184;19;21277;-75
2022/08/20 02:08:01;;;;;;;3.90;3.30;;;;;16.50;94213.00;;;;7394379;19;20140;-76
2022/08/20 02:10:30;;;;;;;3.72;2.97;;;;;16.40;94219.00;;;;7391895;19;20178;-76
2022/08/20 02:13:04;;;;;;;5.25;3.63;;;;;16.60;94221.00;;;;7393583;19;20587;-75
2022/08/20 02:15:32;;;;;;;4.20;3.45;;;;;16.40;94222.00;;;;7394165;19;20137;-75
2022/08/20 02:18:09;;;;;;;3.88;3.47;;;;;16.40;94223.00;;;;7392641;19;20144;-77
2022/08/20 02:20:44;;;;;;;3.88;3.58;;;;;16.40;94222.00;;;;7391316;19;20149;-75
2022/08/20 02:23:14;;;;;;;5.15;4.15;;;;;16.40;94225.00;;;;7393472;19;20137;-76
2022/08/20 02:25:46;;;;;;;4.30;3.88;;;;;16.40;94222.00;;;;7393668;19;20232;-77
2022/08/20 02:28:20;;;;;;;5.13;4.07;;;;;16.50;94220.00;;;;7390657;19;20149;-74
2022/08/20 02:30:51;;;;;;;4.47;4.07;;;;;16.50;94224.00;;;;7391948;19;20149;-74
2022/08/20 02:33:21;;;;;;;4.43;3.60;;;;;16.50;94223.00;;;;7393214;19;20208;-75
2022/08/20 02:36:11;;;;;;;5.45;4.20;;;;;16.50;94228.00;;;;7389429;19;20627;-75
2022/08/20 02:38:45;;;;;;;4.60;4.18;;;;;16.60;94222.00;;;;7393124;19;20297;-74
2022/08/20 02:41:22;;;;;;;4.18;3.78;;;;;16.60;94231.00;;;;7393645;19;20594;-75
2022/08/20 02:43:50;;;;;;;4.25;3.85;;;;;16.50;94216.00;;;;7392696;19;20198;-75
2022/08/20 02:46:18;;;;;;;5.82;3.85;;;;;16.40;94218.00;;;;7391497;19;20136;-76
2022/08/20 02:48:52;;;;;;;3.65;3.35;;;;;16.40;94212.00;;;;7392080;19;20139;-74
2022/08/20 02:51:20;;;;;;;4.32;3.92;;;;;16.30;94209.00;;;;7393063;19;20149;-75
2022/08/20 02:53:57;;;;;;;4.38;3.80;;;;;16.20;94214.00;;;;7392718;19;20660;-74
2022/08/20 02:56:30;;;;;;;4.32;3.75;;;;;16.20;94217.00;;;;7387460;19;20149;-75
2022/08/20 02:58:58;;;;;;;5.03;4.38;;;;;16.30;94212.00;;;;7391330;19;20638;-74
2022/08/20 03:01:26;;;;;;;5.93;4.32;;;;;16.50;94210.00;;;;7393419;19;20178;-73
2022/08/20 03:04:00;;;;;;;4.55;4.15;;;;;16.50;94210.00;;;;7387963;19;20202;-75
2022/08/20 03:06:28;;;;;;;5.15;4.53;;;;;16.60;94209.00;;;;7389943;19;20616;-76
2022/08/20 03:08:56;;;;;;;4.85;4.38;;;;;16.70;94206.00;;;;7391766;19;20702;-74
2022/08/20 03:11:31;;;;;;;5.25;4.75;;;;;16.80;94205.00;;;;7393014;19;20182;-75
2022/08/20 03:13:58;;;;;;;5.57;5.07;;;;;16.90;94214.00;;;;7389499;19;20176;-75
2022/08/20 03:16:26;;;;;;;7.00;5.60;;;;;16.90;94213.00;;;;7388015;19;20620;-75
2022/08/20 03:18:59;;;;;;;5.85;5.25;;;;;16.90;94208.00;;;;7393093;19;20750;-75
2022/08/20 03:21:27;;;;;;;7.97;5.25;;;;;16.90;94212.00;;;;7391912;19;20600;-75
2022/08/20 03:23:55;;;;;;;8.10;5.07;;;;;16.80;94216.00;;;;7391507;19;20495;-74
2022/08/20 03:26:29;;;;;;;6.57;5.72;;;;;16.90;94203.00;;;;7389561;19;20148;-75
2022/08/20 03:28:57;;;;;;;5.10;4.70;;;;;16.90;94209.00;;;;7390356;19;20596;-75
2022/08/20 03:31:25;;;;;;;6.25;5.65;;;;;16.80;94211.00;;;;7392247;19;20663;-74
2022/08/20 03:33:59;;;;;;;9.23;5.50;;;;;16.80;94214.00;;;;7396174;19;20154;-74
2022/08/20 03:36:40;;;;;;;6.20;5.60;;;;;16.80;94207.00;;;;7396119;19;20159;-75
2022/08/20 03:39:14;;;;;;;6.30;5.70;;;;;16.80;94205.00;;;;7401377;19;20133;-74
2022/08/20 03:41:42;;;;;;;8.88;5.60;;;;;16.80;94201.00;;;;7398540;19;20138;-74
2022/08/20 03:44:10;;;;;;;6.13;5.50;;;;;16.80;94198.00;;;;7395576;19;20137;-75
2022/08/20 03:46:43;;;;;;;6.68;6.05;;;;;17.00;94204.00;;;;7397633;19;20157;-75
2022/08/20 03:49:11;;;;;;;6.20;5.60;;;;;16.90;94200.00;;;;7398701;19;20155;-75
2022/08/20 03:51:38;;;;;;;6.82;5.65;;;;;16.80;94203.00;;;;7398756;19;20161;-77
2022/08/20 03:54:24;;;;;;;7.57;5.40;;;;;16.90;94188.00;;;;7397525;19;20162;-75
2022/08/20 03:57:00;;;;;;;5.90;5.40;;;;;16.80;94190.00;;;;7394790;19;20163;-75
2022/08/20 03:59:39;;;;;;;6.82;6.13;;;;;16.70;94200.00;;;;7398482;19;20580;-74
2022/08/20 04:02:07;;;;;;;12.30;7.10;;;;;16.70;94197.00;;;;7395477;19;20223;-76
2022/08/20 04:04:41;;;;;;;8.60;6.43;;;;;16.60;94201.00;;;;7396329;19;20631;-76
2022/08/20 04:07:24;;;;;;;8.18;6.93;;;;;16.40;94200.00;;;;7398358;19;20153;-77
2022/08/20 04:09:58;;;;;;;7.72;6.57;;;;;16.30;94190.00;;;;7396490;19;20150;-76
2022/08/20 04:12:26;;;;;;;10.90;6.38;;;;;16.30;94193.00;;;;7395570;19;20499;-75
2022/08/20 04:14:54;;;;;;;9.75;6.57;;;;;16.20;94203.00;;;;7396775;19;20753;-76
2022/08/20 04:17:31;;;;;;;8.68;6.22;;;;;16.30;94197.00;;;;7399588;19;20136;-76
2022/08/20 04:20:05;;;;;;;8.27;6.82;;;;;16.30;94200.00;;;;7396050;19;20150;-74
2022/08/20 04:22:39;;;;;;;10.07;7.18;;;;;16.20;94205.00;;;;7396102;19;20181;-74
2022/08/20 04:25:07;;;;;;;7.82;6.93;;;;;16.10;94201.00;;;;7397940;19;20604;-75
2022/08/20 04:27:42;;;;;;;9.75;7.53;;;;;16.30;94195.00;;;;7399228;19;20575;-75
2022/08/20 04:30:19;;;;;;;8.95;7.18;;;;;16.20;94215.00;;;;7394913;19;20156;-76
2022/08/20 04:32:48;;;;;;;9.90;6.82;;;;;16.10;94210.00;;;;7395607;19;20592;-76
2022/08/20 04:35:23;;;;;;;10.52;7.47;;;;;16.30;94211.00;;;;7396097;19;20152;-75
2022/08/20 04:38:10;;;;;;;8.75;7.75;;;;;16.30;94210.00;;;;7392178;19;20157;-74
2022/08/20 04:40:53;;;;;;;7.97;6.90;;;;;16.30;94210.00;;;;7396256;19;20148;-75
2022/08/20 04:43:22;;;;;;;9.50;7.00;;;;;16.20;94217.00;;;;7394862;19;20148;-75
2022/08/20 04:45:57;;;;;;;7.72;6.88;;;;;16.20;94210.00;;;;7397419;19;20152;-74
2022/08/20 04:48:27;;;;;;;9.32;7.55;;;;;16.30;94223.00;;;;7394496;19;20592;-73
2022/08/20 04:50:56;;;;;;;9.18;7.43;;;;;16.20;94222.00;;;;7397187;19;20612;-76
2022/08/20 04:53:30;;;;;;;10.25;6.90;;;;;16.30;94224.00;;;;7396987;19;20155;-75
2022/08/20 04:56:00;;;;;;;11.63;7.78;;;;;16.30;94224.00;;;;7394806;19;20561;-74
2022/08/20 04:58:32;;;;;;;10.30;7.20;;;;;16.40;94221.00;;;;7393337;19;20178;-75
2022/08/20 05:01:09;;;;;;;7.38;6.60;;;;;16.40;94220.00;;;;7389490;19;20156;-75
2022/08/20 05:03:38;;;;;;;9.18;6.78;;;;;16.50;94216.00;;;;7394058;19;20148;-76
2022/08/20 05:06:08;;;;;;;9.00;7.15;;;;;16.60;94224.00;;;;7395790;19;20144;-76
2022/08/20 05:08:44;;;;;;;10.18;7.13;;;;;16.70;94217.00;;;;7396111;19;20632;-76
2022/08/20 05:11:13;;;;;;;8.00;6.95;;;;;16.70;94232.00;;;;7398639;19;20153;-74
2022/08/20 05:14:01;;;;;;;8.30;6.90;;;;;16.70;94228.00;;;;7395202;19;20145;-75
2022/08/20 05:16:39;;;;;;;10.32;7.07;;;;;16.80;94226.00;;;;7399593;19;20491;-74
2022/08/20 05:19:10;;;;;;;7.50;6.63;;;;;16.80;94234.00;;;;7397921;19;20170;-76
2022/08/20 05:21:44;;;;;;;8.65;7.10;;;;;16.90;94228.00;;;;7397414;19;20136;-74
2022/08/20 05:24:11;;;;;;;9.65;6.70;;;;;16.80;94236.00;;;;7394703;19;20174;-75
2022/08/20 05:26:39;;;;;;;9.48;6.53;;;;;16.90;94231.00;;;;7397734;19;20148;-75
2022/08/20 05:29:14;;;;;;;8.38;6.60;;;;;17.00;94228.00;;;;7396841;19;20183;-75
2022/08/20 05:31:42;;;;;;;8.15;6.35;;;;;16.90;94232.00;;;;7397905;19;20209;-75
2022/08/20 05:34:11;;;;;;;8.45;6.00;;;;;17.10;94241.00;;;;7393953;19;20164;-75
2022/08/20 05:36:57;;;;;;;8.60;5.88;;;;;17.00;94245.00;;;;7395802;19;20180;-76
2022/08/20 05:39:31;;;;;;;9.05;6.63;;;;;16.90;94244.00;;;;7398134;19;20220;-74
2022/08/20 05:42:06;;;;;;;6.65;5.57;;;;;16.80;94242.00;;;;7395336;19;20144;-76
2022/08/20 05:44:36;;;;;;;8.07;6.32;;;;;16.90;94248.00;;;;7395602;19;20160;-76
2022/08/20 05:47:05;;;;;;;9.02;5.80;;;;;16.90;94252.00;;;;7397164;19;20252;-74
2022/08/20 05:49:39;;;;;;;6.70;6.00;;;;;16.90;94249.00;;;;7398512;19;20132;-75
2022/08/20 05:52:07;;;;;;;6.20;5.60;;;;;16.90;94250.00;;;;7395104;19;20192;-76
2022/08/20 05:54:36;;;;;;;6.25;5.65;;;;;17.20;94251.00;;;;7394454;19;20133;-75
2022/08/20 05:57:12;;;;;;;9.15;5.20;;;;;17.10;94251.00;;;;7396143;19;20145;-76
2022/08/20 05:59:41;;;;;;;6.82;5.55;;;;;17.10;94251.00;;;;7396026;19;20145;-75
2022/08/20 06:04:23;;;;;;;16.38;5.30;;;;;17.10;94252.00;;;;7393125;19;20165;-75
2022/08/20 06:05:03;;;;;;;6.22;5.63;;;;;17.20;94247.00;;;;7396765;19;20493;-72
2022/08/20 06:07:31;;;;;;;6.22;5.32;;;;;17.20;94244.00;;;;7396123;19;20158;-76
2022/08/20 06:10:00;;;;;;;6.47;5.25;;;;;17.20;94246.00;;;;7394966;19;20167;-73
2022/08/20 06:12:36;;;;;;;7.45;5.63;;;;;17.30;94236.00;;;;7394033;19;20160;-75
2022/08/20 06:15:06;;;;;;;7.22;5.85;;;;;17.30;94239.00;;;;7396108;19;20152;-74
2022/08/20 06:17:34;;;;;;;11.93;5.63;;;;;17.30;94239.00;;;;7395206;19;20496;-74
2022/08/20 06:20:10;;;;;;;8.35;5.80;;;;;17.40;94240.00;;;;7393995;19;20148;-76
2022/08/20 06:22:40;;;;;;;6.90;5.80;;;;;17.50;94250.00;;;;7395073;19;20156;-77
2022/08/20 06:25:09;;;;;;;5.28;4.70;;;;;17.60;94242.00;;;;7396546;19;20169;-75
2022/08/20 06:27:43;;;;;;;5.65;4.75;;;;;17.60;94248.00;;;;7398155;19;20151;-76
2022/08/20 06:30:13;;;;;;;6.72;5.05;;;;;17.70;94254.00;;;;7393137;19;20532;-77
2022/08/20 06:32:41;;;;;;;5.72;5.13;;;;;17.50;94239.00;;;;7393041;19;20141;-76
2022/08/20 06:35:16;;;;;;;9.90;5.22;;;;;17.60;94247.00;;;;7394283;19;20133;-76
2022/08/20 06:37:53;;;;;;;6.85;5.32;;;;;17.80;94243.00;;;;7392388;19;20593;-76
2022/08/20 06:40:28;;;;;;;6.80;5.15;;;;;17.70;94243.00;;;;7391306;19;20148;-73
2022/08/20 06:42:57;;;;;;;4.95;4.45;;;;;17.90;94241.00;;;;7392909;19;20186;-74
2022/08/20 06:45:28;;;;;;;5.07;4.20;;;;;17.80;94246.00;;;;7397330;19;20470;-75
2022/08/20 06:48:11;;;;;;;7.00;4.55;;;;;17.80;94249.00;;;;7394156;19;20140;-75
2022/08/20 06:50:45;;;;;;;5.28;4.47;;;;;17.90;94252.00;;;;7392040;19;20663;-75
2022/08/20 06:53:20;;;;;;;5.57;4.47;;;;;17.90;94248.00;;;;7391974;19;20578;-76
2022/08/20 06:55:54;;;;;;;4.38;4.03;;;;;18.00;94248.00;;;;7392706;19;20181;-76
2022/08/20 06:58:31;;;;;;;5.70;4.60;;;;;18.20;94250.00;;;;7392409;19;20220;-76
2022/08/20 07:01:06;;;;;;;4.90;4.40;;;;;18.30;94243.00;;;;7394019;19;20167;-75
2022/08/20 07:03:42;;;;;;;4.68;4.28;;;;;18.50;94242.00;;;;7392577;19;20258;-75
2022/08/20 07:06:26;;;;;;;4.82;4.03;;;;;18.80;94245.00;;;;7392831;19;20602;-76
2022/08/20 07:09:02;;;;;;;5.18;4.38;;;;;18.90;94246.00;;;;7402354;19;20232;-74
2022/08/20 07:11:29;;;;;;;10.82;4.32;;;;;19.00;94236.00;;;;7401216;19;20164;-76
2022/08/20 07:13:58;;;;;;;5.82;4.03;;;;;19.10;94235.00;;;;7397194;19;20125;-76
2022/08/20 07:16:32;;;;;;;4.68;4.28;;;;;18.90;94245.00;;;;7398614;19;20144;-75
2022/08/20 07:19:00;;;;;;;6.30;4.22;;;;;19.20;94244.00;;;;7400701;19;20152;-74
2022/08/20 07:21:29;;;;;;;5.32;4.45;;;;;19.30;94249.00;;;;7400207;19;20158;-75
2022/08/20 07:24:03;;;;;;;5.22;4.22;;;;;19.50;94256.00;;;;7399557;19;20132;-74
2022/08/20 07:26:32;;;;;;;7.22;4.15;;;;;19.40;94253.00;;;;7400729;19;20158;-75
2022/08/20 07:29:00;;;;;;;5.13;4.20;;;;;19.10;94252.00;;;;7400792;19;20149;-74
2022/08/20 07:34:20;;;;;;;4.13;3.72;;;;;19.20;94260.00;;;;7399248;19;20152;-74
2022/08/20 07:37:09;;;;;;;5.18;3.53;;;;;19.30;94261.00;;;;7398305;19;20495;-75
2022/08/20 07:39:37;;;;;;;4.03;3.58;;;;;19.20;94266.00;;;;7400129;19;20128;-74
2022/08/20 07:42:11;;;;;;;4.80;3.90;;;;;19.20;94266.00;;;;7401149;19;20145;-74
2022/08/20 07:44:39;;;;;;;4.22;3.53;;;;;19.20;94269.00;;;;7400471;19;20481;-73
2022/08/20 07:47:08;;;;;;;4.80;4.03;;;;;19.30;94273.00;;;;7399240;19;20477;-75
2022/08/20 07:49:43;;;;;;;4.82;4.43;;;;;19.20;94269.00;;;;7401256;19;20151;-75
2022/08/20 07:52:12;;;;;;;4.43;4.03;;;;;19.20;94276.00;;;;7395633;19;20155;-74
2022/08/20 07:54:40;;;;;;;8.25;4.30;;;;;19.40;94281.00;;;;7397021;19;20157;-74
2022/08/20 07:57:16;;;;;;;3.60;3.30;;;;;19.40;94282.00;;;;7396356;19;20158;-75
2022/08/20 07:59:48;;;;;;;3.97;3.33;;;;;19.50;94283.00;;;;7398297;19;20154;-76
2022/08/20 08:02:24;;;;;;;3.50;3.20;;;;;19.20;94284.00;;;;7398001;19;20151;-75
2022/08/20 08:04:55;;;;;;;3.83;3.20;;;;;19.50;94282.00;;;;7397921;19;20145;-74
2022/08/20 08:08:20;;;;;;;4.00;3.60;;;;;19.60;94286.00;;;;7398600;19;20149;-75
2022/08/20 08:11:19;;;;;;;5.22;3.33;;;;;19.70;94285.00;;;;7394821;19;20132;-76
2022/08/20 08:14:01;;;;;;;3.13;2.80;;;;;19.80;94284.00;;;;7392429;19;20677;-76
2022/08/20 08:16:36;;;;;;;2.88;2.50;;;;;19.80;94281.00;;;;7397667;19;20137;-75
2022/08/20 08:19:20;;;;;;;5.53;2.35;;;;;19.80;94287.00;;;;7397113;19;20573;-77
2022/08/20 08:21:48;;;;;;;3.80;2.30;;;;;19.60;94291.00;;;;7398881;19;20220;-75
2022/08/20 08:24:25;;;;;;;4.43;2.83;;;;;19.30;94289.00;;;;7399032;19;20629;-77
2022/08/20 08:26:55;;;;;;;3.47;2.60;;;;;19.20;94290.00;;;;7394625;19;20160;-76
2022/08/20 08:29:29;;;;;;;4.05;2.55;;;;;19.30;94295.00;;;;7395689;19;21014;-76
2022/08/20 08:32:01;;;;;;;2.88;2.63;;;;;19.10;94301.00;;;;7394786;19;20477;-77
2022/08/20 08:34:40;;;;;;;3.58;2.53;;;;;18.90;94302.00;;;;7395667;19;20172;-77
2022/08/20 08:37:33;;;;;;;4.05;2.80;;;;;18.60;94302.00;;;;7392134;19;20549;-77
2022/08/20 08:40:08;;;;;;;9.15;3.22;;;;;18.60;94303.00;;;;7394540;19;20157;-78
2022/08/20 08:42:44;;;;;;;3.13;2.83;;;;;18.30;94296.00;;;;7392790;19;20160;-77
2022/08/20 08:45:21;;;;;;;4.40;2.80;;;;;18.50;94306.00;;;;7394445;19;20488;-76
2022/08/20 08:47:49;;;;;;;3.15;2.92;;;;;18.60;94305.00;;;;7392952;19;20173;-78
2022/08/20 08:50:28;;;;;;;4.93;2.60;;;;;18.70;94306.00;;;;7396665;19;20572;-77
2022/08/20 08:53:29;;;;;;;4.35;3.03;;;;;18.70;94309.00;;;;7394646;19;20132;-77
2022/08/20 08:56:09;;;;;;;6.35;2.90;;;;;18.70;94314.00;;;;7393371;19;20170;-77
2022/08/20 08:59:03;;;;;;;2.90;2.70;;;;;18.70;94314.00;;;;7394289;19;20156;-76
2022/08/20 09:01:34;;;;;;;3.17;2.95;;;;;18.60;94310.00;;;;7394821;19;20124;-76
2022/08/20 09:04:33;;;;;;;3.30;2.92;;;;;18.40;94310.00;;;;7389809;19;20149;-76
2022/08/20 09:07:04;;;;;;;3.88;3.10;;;;;18.50;94311.00;;;;7392496;19;20160;-74
2022/08/20 09:09:44;;;;;;;3.30;2.70;;;;;18.40;94319.00;;;;7397081;19;20132;-76
2022/08/20 09:12:17;;;;;;;5.38;2.92;;;;;18.30;94320.00;;;;7394277;19;20161;-75
2022/08/20 09:14:52;;;;;;;3.38;3.08;;;;;18.40;94327.00;;;;7395700;19;20834;-76
2022/08/20 09:17:21;;;;;;;4.75;3.20;;;;;18.10;94324.00;;;;7393344;19;20153;-76
2022/08/20 09:19:51;;;;;;;5.15;3.47;;;;;17.90;94314.00;;;;7395386;19;20253;-76
2022/08/20 09:22:25;;;;;;;5.72;2.92;;;;;17.90;94326.00;;;;7391189;19;20168;-76
2022/08/20 09:24:55;;;;;;;3.25;2.95;;;;;17.80;94327.00;;;;7394156;19;20157;-75
2022/08/20 09:27:22;;;;;;;3.58;3.05;;;;;18.00;94318.00;;;;7394716;19;20630;-76
2022/08/20 09:29:57;;;;;;;3.45;3.15;;;;;18.10;94319.00;;;;7392498;19;20141;-75
2022/08/20 09:32:25;;;;;;;3.10;2.78;;;;;18.30;94322.00;;;;7391402;19;20635;-76
2022/08/20 09:34:55;;;;;;;3.08;2.38;;;;;18.10;94322.00;;;;7391793;19;20133;-75
2022/08/20 09:37:41;;;;;;;2.58;2.38;;;;;18.10;94327.00;;;;7392999;19;20202;-76
2022/08/20 09:40:16;;;;;;;2.70;2.50;;;;;18.00;94324.00;;;;7394440;19;20666;-75
2022/08/20 09:42:51;;;;;;;2.95;2.55;;;;;17.90;94322.00;;;;7392462;19;20152;-75
2022/08/20 09:45:20;;;;;;;2.75;2.55;;;;;17.70;94331.00;;;;7390573;19;20587;-75
2022/08/20 09:47:48;;;;;;;2.90;2.70;;;;;17.80;94324.00;;;;7396259;19;20141;-74
2022/08/20 09:50:33;;;;;;;3.03;2.80;;;;;18.00;94317.00;;;;7392560;19;20623;-75
2022/08/20 09:53:03;;;;;;;3.17;2.70;;;;;18.20;94316.00;;;;7393852;19;20580;-75
2022/08/20 09:55:39;;;;;;;2.80;2.60;;;;;18.50;94316.00;;;;7392379;19;20146;-76
2022/08/20 09:58:19;;;;;;;2.75;2.55;;;;;18.90;94322.00;;;;7387130;19;20215;-76
2022/08/20 10:00:53;;;;;;;2.40;2.20;;;;;18.70;94316.00;;;;7391765;19;20160;-77
2022/08/20 10:03:20;;;;;;;2.85;2.65;;;;;18.60;94310.00;;;;7391734;19;20176;-77
2022/08/20 10:05:49;;;;;;;2.15;1.98;;;;;18.70;94311.00;;;;7392869;19;20851;-77
2022/08/20 10:08:23;;;;;;;4.93;2.50;;;;;18.90;94314.00;;;;7391105;19;20174;-76
2022/08/20 10:10:50;;;;;;;3.10;2.30;;;;;19.20;94310.00;;;;7391675;19;20152;-76
2022/08/20 10:13:18;;;;;;;2.20;2.00;;;;;19.50;94315.00;;;;7389504;19;20149;-76
2022/08/20 10:15:52;;;;;;;2.92;1.77;;;;;19.60;94304.00;;;;7394093;19;20613;-76
2022/08/20 10:18:19;;;;;;;1.85;1.65;;;;;20.10;94304.00;;;;7387871;19;20152;-76
2022/08/20 10:20:47;;;;;;;1.60;1.45;;;;;20.10;94306.00;;;;7393958;19;20129;-74
2022/08/20 10:23:22;;;;;;;1.25;1.17;;;;;19.60;94302.00;;;;7391852;19;20147;-76
2022/08/20 10:25:49;;;;;;;1.30;1.15;;;;;19.50;94306.00;;;;7393430;19;20635;-76
2022/08/20 10:28:17;;;;;;;1.00;1.00;;;;;19.70;94303.00;;;;7387426;19;20156;-78
2022/08/20 10:30:51;;;;;;;1.80;1.30;;;;;19.70;94303.00;;;;7391351;19;20144;-75
2022/08/20 10:33:19;;;;;;;1.30;1.20;;;;;19.80;94300.00;;;;7389034;19;20144;-77
2022/08/20 10:35:46;;;;;;;1.20;1.10;;;;;19.70;94292.00;;;;7391647;19;20152;-76
2022/08/20 10:38:33;;;;;;;2.95;0.90;;;;;19.90;94283.00;;;;7388969;19;20171;-74
2022/08/20 10:41:01;;;;;;;0.80;0.80;;;;;20.10;94280.00;;;;7390004;19;20468;-77
2022/08/20 10:43:38;;;;;;;1.00;1.00;;;;;20.20;94283.00;;;;7399661;19;20508;-77
2022/08/20 10:46:07;;;;;;;0.90;0.90;;;;;20.20;94273.00;;;;7398672;19;20500;-75
2022/08/20 10:48:43;;;;;;;0.95;0.93;;;;;19.90;94287.00;;;;7396017;19;20186;-76
2022/08/20 10:51:10;;;;;;;1.08;0.90;;;;;20.30;94283.00;;;;7401017;19;20149;-76
2022/08/20 10:53:39;;;;;;;0.73;0.70;;;;;20.50;94278.00;;;;7400807;19;20143;-77
2022/08/20 10:56:13;;;;;;;2.75;0.90;;;;;20.60;94286.00;;;;7399882;19;20616;-76
2022/08/20 10:58:42;;;;;;;3.10;0.90;;;;;20.30;94283.00;;;;7396053;19;20137;-76
2022/08/20 11:01:11;;;;;;;0.73;0.73;;;;;20.20;94284.00;;;;7400044;19;20145;-75
2022/08/20 11:04:01;;;;;;;1.30;0.77;;;;;19.90;94284.00;;;;7394188;19;20647;-76
2022/08/20 11:06:29;;;;;;;0.70;0.70;;;;;19.90;94288.00;;;;7396998;19;20611;-76
2022/08/20 11:09:03;;;;;;;0.80;0.80;;;;;19.90;94288.00;;;;7398312;19;20600;-75
2022/08/20 11:11:35;;;;;;;0.90;0.90;;;;;20.30;94283.00;;;;7396549;19;20608;-75
2022/08/20 11:14:10;;;;;;;1.95;1.10;;;;;20.70;94263.00;;;;7392796;19;20513;-76
2022/08/20 11:16:37;;;;;;;1.08;0.95;;;;;22.00;94249.00;;;;7396969;19;20666;-76
2022/08/20 11:19:05;;;;;;;1.17;1.00;;;;;22.40;94249.00;;;;7398871;19;20173;-76
2022/08/20 11:21:39;;;;;;;1.35;1.25;;;;;22.80;94245.00;;;;7399295;19;20133;-75
2022/08/20 11:24:12;;;;;;;1.08;1.00;;;;;22.90;94243.00;;;;7394564;19;20173;-76
2022/08/20 11:26:55;;;;;;;1.23;1.13;;;;;23.20;94243.00;;;;7398294;19;20490;-77
2022/08/20 11:29:23;;;;;;;0.90;0.90;;;;;23.40;94252.00;;;;7398588;19;20148;-76
2022/08/20 11:32:00;;;;;;;1.05;0.95;;;;;22.10;94273.00;;;;7399535;19;20190;-76
2022/08/20 11:34:28;;;;;;;1.20;1.10;;;;;21.50;94283.00;;;;7398039;19;20140;-76
2022/08/20 11:36:57;;;;;;;0.90;0.90;;;;;21.20;94272.00;;;;7394980;19;20137;-75
2022/08/20 11:39:39;;;;;;;1.00;1.00;;;;;21.30;94270.00;;;;7399369;19;20627;-77
2022/08/20 11:42:08;;;;;;;1.38;1.10;;;;;21.60;94280.00;;;;7398169;19;20182;-77
2022/08/20 11:44:42;;;;;;;1.80;1.10;;;;;21.20;94294.00;;;;7399673;19;20576;-75
2022/08/20 11:47:27;;;;;;;1.38;1.27;;;;;20.40;94292.00;;;;7399002;19;20240;-77
2022/08/20 11:50:08;;;;;;;4.22;1.80;;;;;20.30;94298.00;;;;7399397;19;20607;-76
2022/08/20 11:52:36;;;;;;;1.70;1.60;;;;;20.00;94300.00;;;;7396411;19;20156;-76
2022/08/20 11:55:13;;;;;;;2.15;1.95;;;;;20.00;94299.00;;;;7397621;19;20670;-76
2022/08/20 11:57:44;;;;;;;2.10;1.90;;;;;19.90;94296.00;;;;7395089;19;20129;-76
2022/08/20 12:00:23;;;;;;;2.50;2.30;;;;;19.60;94306.00;;;;7393048;19;20153;-76
2022/08/20 12:03:03;;;;;;;2.47;2.28;;;;;19.80;94299.00;;;;7394061;19;20173;-76
2022/08/20 12:05:40;;;;;;;2.20;1.98;;;;;19.90;94304.00;;;;7394394;19;20149;-76
2022/08/20 12:08:09;;;;;;;2.00;1.90;;;;;19.80;94302.00;;;;7392736;19;20129;-73
2022/08/20 12:10:58;;;;;;;2.33;1.73;;;;;19.90;94303.00;;;;7393872;19;20125;-76
2022/08/20 12:13:29;;;;;;;2.42;1.75;;;;;19.90;94300.00;;;;7391739;19;20125;-78
2022/08/20 12:16:17;;;;;;;1.85;1.75;;;;;20.30;94290.00;;;;7394481;19;20596;-74
2022/08/20 12:18:47;;;;;;;2.53;1.90;;;;;20.60;94287.00;;;;7392635;19;20208;-74
2022/08/20 12:21:21;;;;;;;2.28;2.05;;;;;20.80;94290.00;;;;7392030;19;20144;-73
2022/08/20 12:23:48;;;;;;;2.08;1.83;;;;;21.20;94281.00;;;;7391983;19;20129;-75
2022/08/20 12:26:16;;;;;;;2.00;1.90;;;;;21.10;94272.00;;;;7392455;19;20154;-76
2022/08/20 12:28:52;;;;;;;2.20;1.98;;;;;21.30;94281.00;;;;7392592;19;20585;-75
2022/08/20 12:31:20;;;;;;;2.00;1.90;;;;;21.60;94277.00;;;;7393102;19;20151;-76
2022/08/20 12:33:47;;;;;;;2.53;1.90;;;;;21.70;94274.00;;;;7392840;19;20616;-76
2022/08/20 12:36:22;;;;;;;1.83;1.73;;;;;21.80;94272.00;;;;7392120;19;20132;-74
2022/08/20 12:38:55;;;;;;;1.60;1.50;;;;;22.00;94274.00;;;;7388414;19;20201;-77
2022/08/20 12:41:30;;;;;;;2.00;1.83;;;;;21.70;94273.00;;;;7391276;19;20152;-77
2022/08/20 12:43:57;;;;;;;1.77;1.67;;;;;22.10;94262.00;;;;7388902;19;20159;-75
2022/08/20 12:46:25;;;;;;;1.63;1.52;;;;;22.20;94270.00;;;;7396905;19;20152;-75
2022/08/20 12:48:59;;;;;;;2.80;1.70;;;;;21.70;94278.00;;;;7395516;19;20141;-76
2022/08/20 12:51:26;;;;;;;1.75;1.65;;;;;21.80;94262.00;;;;7397103;19;20588;-75